Time;durP1;ratioP1;P1;durP2;ratioP2;P2;SDS_P1;SDS_P2;PMS_P1;PMS_P2;Temp;Humidity;BMP_temperature;BMP_pressure;BME280_temperature;BME280_humidity;BME280_pressure;Samples;Min_cycle;Max_cycle;Signal;HPM_P1;HPM_P2
2022/06/10 00:00:14;;;;;;;4.60;4.10;;;15.50;99.90;;;;;;5052514;28;20479;-86
2022/06/10 00:02:43;;;;;;;5.47;4.40;;;15.40;99.90;;;;;;5056378;28;20447;-86
2022/06/10 00:05:12;;;;;;;6.33;4.23;;;15.40;99.90;;;;;;5055653;28;20440;-86
2022/06/10 00:07:38;;;;;;;7.00;3.93;;;15.40;99.90;;;;;;5055645;28;20464;-86
2022/06/10 00:10:09;;;;;;;5.07;4.57;;;15.40;99.90;;;;;;5041470;28;20449;-85
2022/06/10 00:12:35;;;;;;;5.40;3.97;;;15.40;99.90;;;;;;5049490;28;20424;-86
2022/06/10 00:15:02;;;;;;;5.60;4.17;;;15.30;99.90;;;;;;5044933;28;20433;-86
2022/06/10 00:17:29;;;;;;;4.70;4.30;;;15.20;99.90;;;;;;5053101;28;20464;-88
2022/06/10 00:19:56;;;;;;;6.30;4.80;;;15.20;99.90;;;;;;5040223;28;20510;-86
2022/06/10 00:22:22;;;;;;;8.63;4.37;;;15.10;99.90;;;;;;5049436;28;20480;-86
2022/06/10 00:24:51;;;;;;;6.80;4.87;;;15.10;99.90;;;;;;5045184;28;20442;-86
2022/06/10 00:27:19;;;;;;;5.93;4.00;;;15.10;99.90;;;;;;5040657;28;20489;-86
2022/06/10 00:29:46;;;;;;;8.03;4.70;;;15.10;99.90;;;;;;5032854;28;20448;-86
2022/06/10 00:32:12;;;;;;;8.43;5.20;;;15.00;99.90;;;;;;5029805;28;20456;-85
2022/06/10 00:34:39;;;;;;;7.00;6.30;;;15.00;99.90;;;;;;5050689;28;20445;-86
2022/06/10 00:37:14;;;;;;;6.97;5.10;;;15.00;99.90;;;;;;5062549;28;20444;-86
2022/06/10 00:39:41;;;;;;;6.90;4.80;;;15.00;99.90;;;;;;5036829;28;20428;-86
2022/06/10 00:42:08;;;;;;;5.60;4.73;;;14.90;99.90;;;;;;5065049;28;20472;-86
2022/06/10 00:44:39;;;;;;;8.13;4.47;;;14.90;99.90;;;;;;5057269;28;20446;-87
2022/06/10 00:47:15;;;;;;;6.67;4.70;;;15.00;99.90;;;;;;5065763;28;20466;-86
2022/06/10 00:49:44;;;;;;;6.33;4.60;;;14.90;99.90;;;;;;5044702;28;20466;-86
2022/06/10 00:52:19;;;;;;;6.93;4.50;;;14.90;99.90;;;;;;5050299;28;20464;-86
2022/06/10 00:54:46;;;;;;;7.67;4.97;;;14.90;99.90;;;;;;5038459;28;20547;-86
2022/06/10 00:57:17;;;;;;;5.90;4.80;;;14.80;99.90;;;;;;5053311;28;20457;-87
2022/06/10 00:59:47;;;;;;;5.87;5.07;;;14.70;99.90;;;;;;5030453;28;20456;-86
2022/06/10 01:02:21;;;;;;;6.20;5.60;;;14.70;99.90;;;;;;5034925;28;20479;-86
2022/06/10 01:04:48;;;;;;;8.37;4.57;;;14.60;99.90;;;;;;5035329;28;20456;-85
2022/06/10 01:07:18;;;;;;;7.97;4.80;;;14.50;99.90;;;;;;5040101;28;20475;-86
2022/06/10 01:09:46;;;;;;;7.03;4.90;;;14.60;99.90;;;;;;5036195;28;20445;-86
2022/06/10 01:12:30;;;;;;;5.97;5.33;;;14.60;99.90;;;;;;5035041;28;20791;-86
2022/06/10 01:15:21;;;;;;;6.63;5.00;;;14.60;99.90;;;;;;5034593;28;20956;-85
2022/06/10 01:18:02;;;;;;;5.73;4.67;;;14.50;99.90;;;;;;5034246;28;20986;-86
2022/06/10 01:20:37;;;;;;;4.70;3.83;;;14.50;99.90;;;;;;5034599;28;20539;-86
2022/06/10 01:23:38;;;;;;;4.87;4.10;;;14.50;99.90;;;;;;5034274;28;20940;-86
2022/06/10 01:26:24;;;;;;;5.30;3.67;;;14.50;99.90;;;;;;5036739;28;20872;-85
2022/06/10 01:29:23;;;;;;;5.47;4.97;;;14.50;99.90;;;;;;5036515;28;20455;-86
2022/06/10 01:31:57;;;;;;;9.23;5.90;;;14.40;99.90;;;;;;5035037;28;20455;-85
2022/06/10 01:34:33;;;;;;;9.90;4.70;;;14.30;99.90;;;;;;5033764;28;20439;-85
2022/06/10 01:37:06;;;;;;;6.17;4.67;;;14.20;99.90;;;;;;5034867;28;20467;-86
2022/06/10 01:39:46;;;;;;;7.83;6.30;;;14.20;99.90;;;;;;5034163;28;20459;-86
2022/06/10 01:42:29;;;;;;;7.00;5.40;;;14.10;99.90;;;;;;5033840;28;20490;-86
2022/06/10 01:45:03;;;;;;;13.20;7.00;;;14.10;99.90;;;;;;5034212;28;20445;-86
2022/06/10 01:47:38;;;;;;;7.03;4.30;;;14.20;99.90;;;;;;5034940;28;20968;-86
2022/06/10 01:50:12;;;;;;;9.03;4.50;;;14.20;99.90;;;;;;5034917;28;20466;-86
2022/06/10 01:52:43;;;;;;;6.33;4.43;;;14.20;99.90;;;;;;5034073;28;20460;-86
2022/06/10 01:55:18;;;;;;;8.87;5.60;;;14.20;99.90;;;;;;5034594;28;20460;-86
2022/06/10 01:57:48;;;;;;;5.47;4.87;;;14.20;99.90;;;;;;5033674;28;20486;-86
2022/06/10 02:00:19;;;;;;;7.57;6.20;;;14.10;99.90;;;;;;5034165;28;20452;-86
2022/06/10 02:02:52;;;;;;;5.57;4.40;;;14.10;99.90;;;;;;5033442;28;20495;-86
2022/06/10 02:05:22;;;;;;;9.67;6.53;;;14.00;99.90;;;;;;5033562;28;20461;-85
2022/06/10 02:07:53;;;;;;;7.17;5.47;;;14.00;99.90;;;;;;5050023;28;20468;-87
2022/06/10 02:10:27;;;;;;;9.13;4.90;;;13.90;99.90;;;;;;5045506;28;20439;-86
2022/06/10 02:12:59;;;;;;;8.70;5.00;;;13.90;99.90;;;;;;5033422;28;20454;-85
2022/06/10 02:15:30;;;;;;;10.77;6.33;;;14.00;99.90;;;;;;5041514;28;20426;-86
2022/06/10 02:18:02;;;;;;;9.83;6.00;;;13.90;99.90;;;;;;5035574;28;20478;-85
2022/06/10 02:20:31;;;;;;;7.53;5.13;;;14.00;99.90;;;;;;5035625;28;20944;-88
2022/06/10 02:23:03;;;;;;;13.20;6.60;;;13.90;99.90;;;;;;5034051;28;20488;-86
2022/06/10 02:25:35;;;;;;;11.63;6.07;;;13.90;99.90;;;;;;5047310;28;20444;-87
2022/06/10 02:28:11;;;;;;;6.60;5.17;;;13.80;99.90;;;;;;5033828;28;21013;-85
2022/06/10 02:30:43;;;;;;;8.00;4.80;;;13.80;99.90;;;;;;5034328;28;20446;-85
2022/06/10 02:33:12;;;;;;;6.83;4.80;;;13.70;99.90;;;;;;5033966;28;20472;-85
2022/06/10 02:35:44;;;;;;;6.53;5.43;;;13.70;99.90;;;;;;5033906;28;20433;-85
2022/06/10 02:38:20;;;;;;;7.17;5.37;;;13.70;99.90;;;;;;5034424;28;20490;-85
2022/06/10 02:40:54;;;;;;;10.23;6.40;;;13.80;99.90;;;;;;5050134;28;20447;-86
2022/06/10 02:43:29;;;;;;;6.60;5.00;;;13.70;99.90;;;;;;5049635;28;20486;-85
2022/06/10 02:46:00;;;;;;;6.40;5.80;;;13.70;99.90;;;;;;5034964;28;20935;-85
2022/06/10 02:48:37;;;;;;;7.27;6.17;;;13.60;99.90;;;;;;5034854;28;20443;-85
2022/06/10 02:51:04;;;;;;;12.00;6.07;;;13.60;99.90;;;;;;5034897;28;20515;-85
2022/06/10 02:53:31;;;;;;;6.60;5.87;;;13.50;99.90;;;;;;5033652;28;20447;-86
2022/06/10 02:55:58;;;;;;;7.03;5.30;;;13.50;99.90;;;;;;5033761;28;20463;-86
2022/06/10 03:01:25;;;;;;;6.80;5.30;;;13.50;99.90;;;;;;5033532;28;20523;-86
2022/06/10 03:04:06;;;;;;;8.47;6.63;;;13.40;99.90;;;;;;5039776;28;20454;-86
2022/06/10 03:06:40;;;;;;;7.17;5.63;;;13.40;99.90;;;;;;5044846;28;20466;-85
2022/06/10 03:09:13;;;;;;;11.43;6.83;;;13.40;99.90;;;;;;5035628;28;20449;-85
2022/06/10 03:11:46;;;;;;;9.80;5.90;;;13.40;99.90;;;;;;5044232;28;20466;-85
2022/06/10 03:14:22;;;;;;;6.63;6.00;;;13.40;99.90;;;;;;5049883;28;20426;-85
2022/06/10 03:17:00;;;;;;;9.20;6.70;;;13.40;99.90;;;;;;5048612;28;20472;-85
2022/06/10 03:19:38;;;;;;;7.70;6.80;;;13.40;99.90;;;;;;5034465;28;20948;-85
2022/06/10 03:22:16;;;;;;;10.70;7.10;;;13.30;99.90;;;;;;5033934;28;20481;-85
2022/06/10 03:24:55;;;;;;;9.83;7.47;;;13.30;99.90;;;;;;5046111;28;20427;-85
2022/06/10 03:27:27;;;;;;;9.20;6.90;;;13.30;99.90;;;;;;5054199;28;20461;-89
2022/06/10 03:29:58;;;;;;;11.43;7.43;;;13.20;99.90;;;;;;5046758;28;20450;-86
2022/06/10 03:32:33;;;;;;;11.27;5.90;;;13.20;99.90;;;;;;5044661;28;20420;-87
2022/06/10 03:35:11;;;;;;;9.60;6.50;;;13.10;99.90;;;;;;5040969;28;20544;-86
2022/06/10 03:37:41;;;;;;;6.97;6.27;;;13.10;99.90;;;;;;5036269;28;20446;-87
2022/06/10 03:40:14;;;;;;;8.47;7.00;;;13.10;99.90;;;;;;5038919;28;20453;-85
2022/06/10 03:42:46;;;;;;;7.00;6.07;;;13.10;99.90;;;;;;5040101;28;21018;-85
2022/06/10 03:45:17;;;;;;;9.50;6.27;;;13.10;99.90;;;;;;5039378;28;20474;-86
2022/06/10 03:47:44;;;;;;;7.00;6.00;;;13.10;99.90;;;;;;5035798;28;20461;-86
2022/06/10 03:50:14;;;;;;;7.43;6.13;;;13.10;99.90;;;;;;5034468;28;20943;-83
2022/06/10 03:52:44;;;;;;;8.90;5.87;;;13.10;99.90;;;;;;5035076;28;20450;-83
2022/06/10 03:55:15;;;;;;;7.17;6.47;;;13.10;99.90;;;;;;5037383;28;20449;-83
2022/06/10 03:57:42;;;;;;;5.87;5.27;;;13.10;99.90;;;;;;5035734;28;20461;-83
2022/06/10 04:00:14;;;;;;;12.30;6.73;;;13.10;99.90;;;;;;5038494;28;20818;-83
2022/06/10 04:02:41;;;;;;;7.30;6.47;;;13.10;99.90;;;;;;5048468;28;20492;-83
2022/06/10 04:05:10;;;;;;;8.17;6.33;;;13.10;99.90;;;;;;5052414;28;20503;-83
2022/06/10 04:07:39;;;;;;;7.17;5.93;;;13.10;99.90;;;;;;5041504;28;20478;-84
2022/06/10 04:10:09;;;;;;;10.67;6.20;;;13.10;99.90;;;;;;5049434;28;20439;-83
2022/06/10 04:12:36;;;;;;;8.33;6.50;;;13.10;99.90;;;;;;5040095;28;20485;-83
2022/06/10 04:15:03;;;;;;;8.80;6.30;;;13.10;99.90;;;;;;5038598;28;20448;-84
2022/06/10 04:17:30;;;;;;;7.90;6.90;;;13.10;99.90;;;;;;5048563;28;20471;-83
2022/06/10 04:19:59;;;;;;;7.37;6.37;;;13.10;99.90;;;;;;5056570;28;20446;-84
2022/06/10 04:22:26;;;;;;;8.97;5.60;;;13.20;99.90;;;;;;5049308;28;20571;-84
2022/06/10 04:24:54;;;;;;;5.80;5.30;;;13.20;99.90;;;;;;5048361;28;20445;-84
2022/06/10 04:27:21;;;;;;;8.17;5.10;;;13.30;99.90;;;;;;5061602;22;20507;-85
2022/06/10 04:29:48;;;;;;;6.83;5.67;;;13.30;99.90;;;;;;5057590;28;20463;-85
2022/06/10 04:32:15;;;;;;;7.70;6.47;;;13.30;99.90;;;;;;5056042;28;20438;-86
2022/06/10 04:34:42;;;;;;;5.83;4.80;;;13.40;99.90;;;;;;5055795;28;20810;-86
2022/06/10 04:37:10;;;;;;;7.77;5.50;;;13.50;99.90;;;;;;5058359;28;20473;-85
2022/06/10 04:39:37;;;;;;;6.53;5.40;;;13.50;99.90;;;;;;5046870;28;20433;-85
2022/06/10 04:42:06;;;;;;;12.20;5.07;;;13.60;99.90;;;;;;5086755;28;20461;-87
2022/06/10 04:44:33;;;;;;;8.00;5.57;;;13.60;99.90;;;;;;5073001;28;20445;-87
2022/06/10 04:47:00;;;;;;;9.20;5.50;;;13.60;99.90;;;;;;5077699;28;20460;-87
2022/06/10 04:49:28;;;;;;;7.27;4.97;;;13.60;99.90;;;;;;5067998;28;20440;-87
2022/06/10 04:51:55;;;;;;;10.77;5.30;;;13.70;99.90;;;;;;5043430;28;20973;-87
2022/06/10 04:54:22;;;;;;;7.13;4.50;;;13.80;99.90;;;;;;5050619;28;20473;-87
2022/06/10 04:56:49;;;;;;;9.83;5.37;;;13.80;99.90;;;;;;5062808;28;20540;-86
2022/06/10 04:59:17;;;;;;;8.00;5.27;;;13.80;99.90;;;;;;5056701;28;21180;-86
2022/06/10 05:01:44;;;;;;;9.30;4.97;;;13.80;99.90;;;;;;5057517;28;20943;-87
2022/06/10 05:04:10;;;;;;;6.20;5.60;;;13.90;99.90;;;;;;5051956;28;20455;-86
2022/06/10 05:06:37;;;;;;;13.87;6.87;;;14.00;99.90;;;;;;5054201;28;20475;-86
2022/06/10 05:09:04;;;;;;;4.63;4.10;;;14.10;99.90;;;;;;5075515;28;20443;-85
2022/06/10 05:11:31;;;;;;;8.20;4.67;;;14.20;99.90;;;;;;5076995;28;20442;-86
2022/06/10 05:13:57;;;;;;;9.93;4.47;;;14.20;99.90;;;;;;5087165;28;20456;-86
2022/06/10 05:16:26;;;;;;;9.53;5.07;;;14.30;99.90;;;;;;5089086;28;20435;-86
2022/06/10 05:18:53;;;;;;;9.00;5.33;;;14.40;99.90;;;;;;5074280;28;20473;-86
2022/06/10 05:21:20;;;;;;;9.70;5.57;;;14.90;99.90;;;;;;5075029;28;20458;-86
2022/06/10 05:23:47;;;;;;;5.67;4.20;;;15.60;99.90;;;;;;5074992;28;20857;-86
2022/06/10 05:26:14;;;;;;;5.67;4.03;;;16.10;99.90;;;;;;5074631;28;20448;-86
2022/06/10 05:28:40;;;;;;;7.23;5.03;;;16.60;99.90;;;;;;5074977;28;20483;-86
2022/06/10 05:31:07;;;;;;;6.90;4.47;;;17.10;99.90;;;;;;5083994;28;20427;-87
2022/06/10 05:36:17;;;;;;;5.83;4.90;;;18.00;99.90;;;;;;5079911;28;20433;-86
2022/06/10 05:38:44;;;;;;;6.40;4.53;;;18.40;98.60;;;;;;5076424;28;20766;-87
2022/06/10 05:43:55;;;;;;;5.60;4.53;;;19.20;96.20;;;;;;5074736;28;20562;-86
2022/06/10 05:46:22;;;;;;;6.17;4.60;;;19.70;94.90;;;;;;5074434;28;20434;-86
2022/06/10 05:48:50;;;;;;;5.50;4.37;;;20.00;93.60;;;;;;5074228;28;20433;-87
2022/06/10 05:51:18;;;;;;;10.53;5.00;;;20.20;93.10;;;;;;5074099;28;20440;-86
2022/06/10 05:53:45;;;;;;;4.27;3.40;;;20.70;92.40;;;;;;5075516;28;20439;-87
2022/06/10 05:56:12;;;;;;;6.80;3.60;;;21.20;91.20;;;;;;5074191;28;20466;-86
2022/06/10 05:58:39;;;;;;;9.53;3.47;;;21.30;89.70;;;;;;5073484;28;20651;-86
2022/06/10 06:01:06;;;;;;;8.80;4.43;;;21.70;88.40;;;;;;5074155;28;20442;-84
2022/06/10 06:03:32;;;;;;;4.87;3.90;;;22.00;86.70;;;;;;5073987;28;20475;-84
2022/06/10 06:06:01;;;;;;;7.67;4.07;;;22.70;85.00;;;;;;5077754;28;20881;-86
2022/06/10 06:08:28;;;;;;;6.33;3.90;;;22.80;82.00;;;;;;5079848;28;20464;-86
2022/06/10 06:10:55;;;;;;;5.27;3.57;;;23.30;81.40;;;;;;5080031;28;20447;-87
2022/06/10 06:13:22;;;;;;;7.47;3.43;;;23.70;78.90;;;;;;5078955;28;20437;-87
2022/06/10 06:15:48;;;;;;;5.70;3.50;;;23.90;76.40;;;;;;5075763;28;20450;-86
2022/06/10 06:18:15;;;;;;;6.00;3.63;;;24.10;75.40;;;;;;5073057;28;21030;-87
2022/06/10 06:20:42;;;;;;;7.40;3.73;;;24.60;74.70;;;;;;5073568;28;20481;-87
2022/06/10 06:23:11;;;;;;;4.57;3.47;;;24.80;72.80;;;;;;5092057;28;20496;-88
2022/06/10 06:25:38;;;;;;;10.10;3.87;;;24.70;71.20;;;;;;5085265;28;20458;-85
2022/06/10 06:28:07;;;;;;;5.77;3.43;;;24.60;71.70;;;;;;5073239;28;20995;-85
2022/06/10 06:30:36;;;;;;;7.40;3.63;;;25.30;71.30;;;;;;5074182;28;20448;-85
2022/06/10 06:33:05;;;;;;;14.30;4.67;;;25.80;68.60;;;;;;5073543;28;21040;-86
2022/06/10 06:35:33;;;;;;;6.40;2.77;;;26.00;67.10;;;;;;5073445;28;20518;-85
2022/06/10 06:38:01;;;;;;;7.40;3.57;;;26.20;65.60;;;;;;5073115;28;20475;-86
2022/06/10 06:40:29;;;;;;;4.40;3.40;;;26.20;64.30;;;;;;5075970;28;20447;-85
2022/06/10 06:42:55;;;;;;;5.03;3.53;;;26.30;64.70;;;;;;5076257;28;20479;-86
2022/06/10 06:45:24;;;;;;;4.93;3.00;;;26.70;63.40;;;;;;5073675;28;20970;-87
2022/06/10 06:47:52;;;;;;;5.27;3.27;;;27.00;62.20;;;;;;5075812;28;20865;-86
2022/06/10 06:50:26;;;;;;;4.37;2.77;;;27.00;60.60;;;;;;5076212;28;20498;-86
2022/06/10 06:52:54;;;;;;;4.50;2.90;;;26.60;60.50;;;;;;5076578;28;20458;-86
2022/06/10 06:55:24;;;;;;;6.00;3.40;;;26.30;61.00;;;;;;5076325;28;20979;-87
2022/06/10 06:57:53;;;;;;;6.23;3.47;;;26.50;61.30;;;;;;5091579;28;20757;-86
2022/06/10 07:00:21;;;;;;;6.17;3.20;;;25.90;60.70;;;;;;5081465;28;20439;-86
2022/06/10 07:02:48;;;;;;;8.53;2.80;;;26.30;61.90;;;;;;5075231;28;20558;-86
2022/06/10 07:05:15;;;;;;;7.83;3.47;;;26.80;59.80;;;;;;5075523;28;20450;-86
2022/06/10 07:07:44;;;;;;;4.47;2.80;;;27.30;58.90;;;;;;5074410;28;20467;-85
2022/06/10 07:10:12;;;;;;;5.87;2.80;;;26.50;59.40;;;;;;5074337;28;20439;-86
2022/06/10 07:12:39;;;;;;;5.40;2.80;;;27.30;58.60;;;;;;5075187;28;20462;-86
2022/06/10 07:15:08;;;;;;;4.13;2.40;;;28.30;57.90;;;;;;5074511;28;20458;-86
2022/06/10 07:17:35;;;;;;;8.47;3.47;;;29.20;55.80;;;;;;5073770;28;20463;-86
2022/06/10 07:20:03;;;;;;;4.40;2.40;;;29.20;55.60;;;;;;5074620;28;20448;-86
2022/06/10 07:22:30;;;;;;;4.97;2.73;;;28.80;55.10;;;;;;5077884;28;20455;-86
2022/06/10 07:24:57;;;;;;;6.30;2.70;;;29.20;54.00;;;;;;5077627;28;20970;-86
2022/06/10 07:27:23;;;;;;;3.87;2.70;;;29.30;54.40;;;;;;5078934;28;20471;-86
2022/06/10 07:29:50;;;;;;;7.20;3.30;;;29.90;53.60;;;;;;5076236;28;20450;-86
2022/06/10 07:32:19;;;;;;;5.20;2.53;;;30.50;52.40;;;;;;5078203;28;20451;-87
2022/06/10 07:34:46;;;;;;;5.50;2.73;;;30.60;51.80;;;;;;5081679;28;20444;-86
2022/06/10 07:37:13;;;;;;;5.60;2.60;;;30.40;50.90;;;;;;5079555;28;20501;-85
2022/06/10 07:39:40;;;;;;;7.60;2.53;;;29.60;51.90;;;;;;5079774;28;20435;-86
2022/06/10 07:42:06;;;;;;;4.23;2.20;;;29.60;52.60;;;;;;5080417;28;20444;-85
2022/06/10 07:44:36;;;;;;;3.90;2.50;;;29.40;52.20;;;;;;5080385;28;20986;-86
2022/06/10 07:47:07;;;;;;;4.47;2.97;;;29.50;53.20;;;;;;5080950;28;20482;-86
2022/06/10 07:49:36;;;;;;;6.60;2.77;;;29.90;52.70;;;;;;5080793;28;20939;-86
2022/06/10 07:52:09;;;;;;;8.27;2.93;;;30.00;52.70;;;;;;5080973;28;20986;-86
2022/06/10 07:54:36;;;;;;;4.50;2.50;;;30.70;52.10;;;;;;5093508;28;20474;-86
2022/06/10 07:57:04;;;;;;;4.13;2.40;;;30.40;51.10;;;;;;5099780;28;20477;-85
2022/06/10 07:59:32;;;;;;;4.77;3.00;;;30.80;51.90;;;;;;5093591;28;20431;-86
2022/06/10 08:01:59;;;;;;;5.23;3.00;;;30.60;50.50;;;;;;5097548;28;20431;-87
2022/06/10 08:04:26;;;;;;;11.40;3.30;;;30.90;50.50;;;;;;5095198;28;20493;-86
2022/06/10 08:06:54;;;;;;;6.67;2.67;;;32.00;49.70;;;;;;5086699;28;20494;-86
2022/06/10 08:09:22;;;;;;;5.33;2.93;;;32.00;48.00;;;;;;5098004;28;20455;-87
2022/06/10 08:11:49;;;;;;;6.00;3.00;;;31.90;47.40;;;;;;5100323;28;20462;-87
2022/06/10 08:14:16;;;;;;;3.90;2.33;;;32.10;47.80;;;;;;5096476;28;20462;-89
2022/06/10 08:16:43;;;;;;;3.70;2.57;;;30.80;48.50;;;;;;5081651;28;20463;-86
2022/06/10 08:19:09;;;;;;;5.57;3.53;;;30.20;49.00;;;;;;5081067;28;20453;-87
2022/06/10 08:24:24;;;;;;;6.43;2.57;;;29.30;51.10;;;;;;5058418;28;20517;-87
2022/06/10 08:26:52;;;;;;;52.63;9.30;;;29.50;51.50;;;;;;5056562;28;20547;-86
2022/06/10 08:29:19;;;;;;;5.20;2.60;;;31.40;50.70;;;;;;5058924;28;20516;-86
2022/06/10 08:31:46;;;;;;;8.73;4.07;;;31.70;48.10;;;;;;5057752;28;20479;-86
2022/06/10 08:34:13;;;;;;;2.87;2.07;;;32.50;47.00;;;;;;5046877;28;20443;-86
2022/06/10 08:36:41;;;;;;;3.57;2.17;;;32.60;48.00;;;;;;5066984;28;20490;-87
2022/06/10 08:39:08;;;;;;;4.77;3.07;;;31.80;45.80;;;;;;5078854;28;20440;-88
2022/06/10 08:41:48;;;;;;;4.37;2.20;;;32.10;45.60;;;;;;5066118;28;20428;-87
2022/06/10 08:44:26;;;;;;;4.23;1.93;;;32.50;46.00;;;;;;5072546;28;20486;-86
2022/06/10 08:47:27;;;;;;;5.43;2.43;;;33.30;45.30;;;;;;5063940;28;20464;-86
2022/06/10 08:50:05;;;;;;;4.67;2.23;;;33.10;42.90;;;;;;5067205;28;20440;-86
2022/06/10 08:52:38;;;;;;;4.33;2.80;;;32.70;44.10;;;;;;5065253;28;20504;-86
2022/06/10 08:55:18;;;;;;;4.90;2.27;;;32.60;44.50;;;;;;5066707;28;20421;-86
2022/06/10 08:57:49;;;;;;;5.23;2.20;;;32.80;44.50;;;;;;5078932;28;20494;-87
2022/06/10 09:00:21;;;;;;;4.70;2.60;;;33.10;43.90;;;;;;5062284;28;20470;-87
2022/06/10 09:03:06;;;;;;;5.40;2.60;;;34.10;43.00;;;;;;5057894;28;20456;-86
2022/06/10 09:05:37;;;;;;;5.83;3.20;;;35.10;41.50;;;;;;5057036;28;20421;-87
2022/06/10 09:08:08;;;;;;;4.03;2.50;;;35.60;40.70;;;;;;5059197;28;20479;-86
2022/06/10 09:10:42;;;;;;;7.30;2.40;;;35.60;39.00;;;;;;5059070;28;20449;-86
2022/06/10 09:13:38;;;;;;;5.53;2.43;;;34.80;39.70;;;;;;5059731;28;20448;-86
2022/06/10 09:16:16;;;;;;;4.30;2.13;;;35.00;41.00;;;;;;5053735;28;20488;-86
2022/06/10 09:18:59;;;;;;;3.67;2.10;;;34.10;39.90;;;;;;5060802;28;20479;-86
2022/06/10 09:21:35;;;;;;;3.33;2.23;;;34.70;39.90;;;;;;5059566;28;20471;-87
2022/06/10 09:24:16;;;;;;;3.97;2.60;;;34.30;40.40;;;;;;5056260;28;20903;-86
2022/06/10 09:26:47;;;;;;;4.50;2.30;;;34.60;41.00;;;;;;5054757;28;20525;-87
2022/06/10 09:29:16;;;;;;;4.63;2.30;;;35.20;39.30;;;;;;5055101;28;20448;-87
2022/06/10 09:31:54;;;;;;;4.20;2.07;;;35.50;38.60;;;;;;5055677;28;20450;-87
2022/06/10 09:34:34;;;;;;;7.63;2.37;;;34.90;38.60;;;;;;5055401;28;20538;-85
2022/06/10 09:37:10;;;;;;;8.63;2.47;;;34.20;39.00;;;;;;5055131;28;20472;-85
2022/06/10 09:42:39;;;;;;;5.07;2.50;;;36.30;37.90;;;;;;5055414;28;20432;-86
2022/06/10 09:45:14;;;;;;;5.80;2.30;;;37.00;36.00;;;;;;5055984;28;20862;-86
2022/06/10 09:47:55;;;;;;;4.63;1.90;;;38.10;35.30;;;;;;5054944;28;21003;-86
2022/06/10 09:50:31;;;;;;;2.90;1.97;;;36.50;32.70;;;;;;5075549;28;20455;-86
2022/06/10 09:53:19;;;;;;;3.83;1.60;;;34.80;34.90;;;;;;5061186;28;20539;-86
2022/06/10 09:56:01;;;;;;;4.43;1.90;;;34.90;35.40;;;;;;5056340;28;20448;-86
2022/06/10 09:58:51;;;;;;;4.83;2.07;;;35.20;35.80;;;;;;5034304;28;20469;-82
2022/06/10 10:01:32;;;;;;;5.80;2.10;;;36.40;34.90;;;;;;5034267;28;20988;-83
2022/06/10 10:04:30;;;;;;;5.90;2.67;;;37.20;34.20;;;;;;5034876;28;20563;-82
2022/06/10 10:07:04;;;;;;;5.00;2.10;;;36.60;34.20;;;;;;5034490;28;20473;-83
2022/06/10 10:09:42;;;;;;;5.50;1.90;;;37.50;33.60;;;;;;5034333;28;20945;-83
2022/06/10 10:12:18;;;;;;;4.43;2.43;;;35.40;33.60;;;;;;5041097;28;20456;-83
2022/06/10 10:14:51;;;;;;;10.80;2.13;;;33.80;36.30;;;;;;5038567;28;20453;-83
2022/06/10 10:17:43;;;;;;;6.07;2.07;;;34.50;36.80;;;;;;5037766;28;20469;-83
2022/06/10 10:20:22;;;;;;;4.50;1.87;;;33.70;35.70;;;;;;5039819;28;20507;-83
2022/06/10 10:23:06;;;;;;;3.97;2.20;;;35.10;36.20;;;;;;5034340;28;20929;-83
2022/06/10 10:25:32;;;;;;;4.10;1.73;;;35.80;35.70;;;;;;5033940;28;20489;-83
2022/06/10 10:30:44;;;;;;;3.60;1.93;;;38.80;33.70;;;;;;5044019;28;20481;-85
2022/06/10 10:33:15;;;;;;;3.97;1.57;;;39.00;32.50;;;;;;5048743;28;20446;-85
2022/06/10 10:35:44;;;;;;;7.43;2.13;;;39.50;31.80;;;;;;5048699;28;20442;-84
2022/06/10 10:38:13;;;;;;;4.20;2.73;;;39.20;31.80;;;;;;5048336;28;20444;-84
2022/06/10 10:40:42;;;;;;;5.00;1.80;;;37.90;32.20;;;;;;5056846;28;20436;-85
2022/06/10 10:43:14;;;;;;;4.90;1.70;;;37.60;31.70;;;;;;5066181;28;20885;-85
2022/06/10 10:45:54;;;;;;;6.47;4.67;;;37.80;32.20;;;;;;5066664;28;20484;-85
2022/06/10 10:48:25;;;;;;;6.00;2.80;;;38.70;31.30;;;;;;5066022;28;20474;-85
2022/06/10 10:50:56;;;;;;;3.80;2.17;;;39.60;31.50;;;;;;5065536;28;20447;-85
2022/06/10 10:53:26;;;;;;;5.70;2.47;;;39.50;30.70;;;;;;5066173;28;20440;-85
2022/06/10 10:55:56;;;;;;;5.33;2.43;;;37.40;31.80;;;;;;5065197;28;20440;-83
2022/06/10 10:58:28;;;;;;;5.80;2.37;;;36.40;33.40;;;;;;5067990;28;20455;-83
2022/06/10 11:00:58;;;;;;;3.90;1.70;;;37.10;32.50;;;;;;5072064;28;20436;-85
2022/06/10 11:03:28;;;;;;;3.27;2.20;;;37.40;32.10;;;;;;5065891;28;20471;-85
2022/06/10 11:05:57;;;;;;;3.97;1.93;;;35.70;32.80;;;;;;5068515;28;20490;-84
2022/06/10 11:08:27;;;;;;;4.07;1.80;;;35.50;34.20;;;;;;5041442;28;20442;-85
2022/06/10 11:11:02;;;;;;;2.70;1.93;;;35.20;34.20;;;;;;5040812;28;20930;-84
2022/06/10 11:13:48;;;;;;;2.87;2.17;;;33.50;35.80;;;;;;5033838;28;20452;-85
2022/06/10 11:16:38;;;;;;;5.43;2.40;;;32.60;37.60;;;;;;5030453;28;20430;-85
2022/06/10 11:19:16;;;;;;;5.80;2.23;;;32.90;38.00;;;;;;5033777;28;20457;-85
2022/06/10 11:22:11;;;;;;;4.23;1.90;;;34.60;35.80;;;;;;5048877;28;20452;-84
2022/06/10 11:24:41;;;;;;;4.50;2.13;;;35.30;34.30;;;;;;5032194;28;20540;-84
2022/06/10 11:27:28;;;;;;;4.57;2.67;;;36.30;33.50;;;;;;5059709;28;20444;-84
2022/06/10 11:30:03;;;;;;;5.10;2.10;;;37.30;32.80;;;;;;5069964;28;20486;-85
2022/06/10 11:32:36;;;;;;;3.13;1.80;;;38.20;31.60;;;;;;5071077;28;20443;-85
2022/06/10 11:35:20;;;;;;;4.23;1.90;;;37.40;31.40;;;;;;5077470;28;20436;-84
2022/06/10 11:37:50;;;;;;;5.17;2.00;;;37.70;32.60;;;;;;5076968;28;20440;-85
2022/06/10 11:40:22;;;;;;;4.37;1.80;;;38.60;31.20;;;;;;5071216;28;20478;-85
2022/06/10 11:43:01;;;;;;;4.50;2.07;;;39.30;30.20;;;;;;5074231;28;20440;-85
2022/06/10 11:45:32;;;;;;;6.87;1.90;;;38.40;31.10;;;;;;5072680;28;20533;-86
2022/06/10 11:48:33;;;;;;;6.03;2.13;;;36.70;30.50;;;;;;5149419;27;20544;-85
2022/06/10 11:51:04;;;;;;;6.03;2.20;;;33.50;34.80;;;;;;5149937;27;20431;-84
2022/06/10 11:53:40;;;;;;;5.17;1.97;;;33.40;35.90;;;;;;5151252;27;20441;-83
2022/06/10 12:01:50;;;;;;;3.27;1.67;;;35.20;33.60;;;;;;5154010;27;20428;-84
2022/06/10 12:04:26;;;;;;;3.87;2.00;;;36.00;32.70;;;;;;5155544;27;20841;-83
2022/06/10 12:06:57;;;;;;;4.33;2.17;;;36.20;31.50;;;;;;5147741;27;20877;-84
2022/06/10 12:09:29;;;;;;;3.80;2.20;;;36.30;30.90;;;;;;5152240;27;20539;-84
2022/06/10 12:12:00;;;;;;;2.93;2.10;;;37.00;31.00;;;;;;5159135;27;20441;-84
2022/06/10 12:14:32;;;;;;;3.00;1.97;;;37.40;30.40;;;;;;5159529;27;20439;-83
2022/06/10 12:17:03;;;;;;;1.90;1.53;;;37.10;31.20;;;;;;5153906;27;20436;-84
2022/06/10 12:19:37;;;;;;;3.23;1.93;;;36.60;30.70;;;;;;5154333;27;20444;-84
2022/06/10 12:22:04;;;;;;;4.60;2.13;;;35.20;32.40;;;;;;5150277;27;20444;-84
2022/06/10 12:24:32;;;;;;;4.87;2.20;;;35.10;33.40;;;;;;5154333;27;20417;-83
2022/06/10 12:27:01;;;;;;;2.90;1.70;;;35.30;32.70;;;;;;5163494;27;20472;-83
2022/06/10 12:29:38;;;;;;;4.20;2.10;;;35.20;32.60;;;;;;5162079;27;20455;-83
2022/06/10 12:32:12;;;;;;;5.17;2.17;;;34.10;32.80;;;;;;5159901;27;20436;-83
2022/06/10 12:34:55;;;;;;;4.23;1.90;;;35.00;32.80;;;;;;5153045;27;20432;-84
2022/06/10 12:37:28;;;;;;;3.97;2.03;;;35.70;31.50;;;;;;5157870;27;20425;-84
2022/06/10 12:40:01;;;;;;;3.90;1.83;;;35.50;31.60;;;;;;5154235;27;20485;-84
2022/06/10 12:42:36;;;;;;;5.00;2.40;;;34.50;31.90;;;;;;5156115;27;20462;-84
2022/06/10 12:45:07;;;;;;;3.67;1.97;;;34.40;32.80;;;;;;5158900;27;20425;-84
2022/06/10 12:47:36;;;;;;;3.13;2.07;;;32.40;34.70;;;;;;5157411;27;20495;-83
2022/06/10 12:50:18;;;;;;;2.30;1.90;;;31.70;36.00;;;;;;5153678;27;20797;-84
2022/06/10 12:52:58;;;;;;;6.30;1.77;;;31.40;36.90;;;;;;5154851;27;20456;-84
2022/06/10 12:55:28;;;;;;;4.33;2.17;;;30.40;37.90;;;;;;5152562;27;20436;-84
2022/06/10 12:57:55;;;;;;;4.80;1.93;;;30.00;39.50;;;;;;5152165;27;20483;-84
2022/06/10 13:00:43;;;;;;;3.60;1.70;;;30.00;39.20;;;;;;5152377;27;20483;-83
2022/06/10 13:03:30;;;;;;;2.40;1.63;;;29.70;38.70;;;;;;5132883;28;20456;-84
2022/06/10 13:05:58;;;;;;;4.10;2.30;;;28.60;40.80;;;;;;5133123;28;20465;-83
2022/06/10 13:08:50;;;;;;;3.20;1.67;;;28.20;42.10;;;;;;5129618;28;20483;-83
2022/06/10 13:11:39;;;;;;;6.87;2.20;;;28.20;42.70;;;;;;5136557;28;20448;-83
2022/06/10 13:14:22;;;;;;;6.23;2.57;;;27.90;43.40;;;;;;5117341;28;20446;-82
2022/06/10 13:17:08;;;;;;;2.90;2.43;;;27.80;43.20;;;;;;5133114;28;20430;-84
2022/06/10 13:19:37;;;;;;;3.63;2.40;;;27.60;44.60;;;;;;5133448;27;20452;-84
2022/06/10 13:22:43;;;;;;;6.83;2.30;;;28.00;43.90;;;;;;5134050;28;20805;-84
2022/06/10 13:25:20;;;;;;;3.67;2.40;;;28.10;43.60;;;;;;5127864;27;20454;-83
2022/06/10 13:27:48;;;;;;;4.73;2.10;;;27.80;44.00;;;;;;5136679;27;20480;-84
2022/06/10 13:30:19;;;;;;;6.00;2.60;;;27.60;44.80;;;;;;5140400;27;20459;-84
2022/06/10 13:32:48;;;;;;;5.03;2.60;;;27.70;44.10;;;;;;5141815;27;20410;-83